sensor_id;sensor_type;location;lat;lon;timestamp;P1;durP1;ratioP1;P2;durP2;ratioP2
9288;SDS011;4683;50.864;12.086;2023-07-09T00:00:18;9.47;;;8.57;;
9288;SDS011;4683;50.864;12.086;2023-07-09T00:02:46;9.47;;;7.70;;
9288;SDS011;4683;50.864;12.086;2023-07-09T00:05:16;9.10;;;8.30;;
9288;SDS011;4683;50.864;12.086;2023-07-09T00:07:45;9.87;;;8.87;;
9288;SDS011;4683;50.864;12.086;2023-07-09T00:10:18;9.77;;;8.77;;
9288;SDS011;4683;50.864;12.086;2023-07-09T00:12:49;10.10;;;9.07;;
9288;SDS011;4683;50.864;12.086;2023-07-09T00:15:18;10.00;;;8.83;;
9288;SDS011;4683;50.864;12.086;2023-07-09T00:17:47;9.07;;;8.13;;
9288;SDS011;4683;50.864;12.086;2023-07-09T00:20:17;8.90;;;8.10;;
9288;SDS011;4683;50.864;12.086;2023-07-09T00:22:46;8.47;;;7.67;;
9288;SDS011;4683;50.864;12.086;2023-07-09T00:25:20;9.03;;;8.10;;
9288;SDS011;4683;50.864;12.086;2023-07-09T00:27:50;8.53;;;7.83;;
9288;SDS011;4683;50.864;12.086;2023-07-09T00:34:24;9.13;;;8.23;;
9288;SDS011;4683;50.864;12.086;2023-07-09T00:36:53;9.63;;;8.77;;
9288;SDS011;4683;50.864;12.086;2023-07-09T00:39:22;9.73;;;8.93;;
9288;SDS011;4683;50.864;12.086;2023-07-09T00:41:52;9.17;;;8.37;;
9288;SDS011;4683;50.864;12.086;2023-07-09T00:44:27;9.80;;;8.90;;
9288;SDS011;4683;50.864;12.086;2023-07-09T00:50:11;8.63;;;7.87;;
9288;SDS011;4683;50.864;12.086;2023-07-09T00:52:50;9.90;;;8.33;;
9288;SDS011;4683;50.864;12.086;2023-07-09T00:55:22;9.80;;;8.70;;
9288;SDS011;4683;50.864;12.086;2023-07-09T00:58:11;8.80;;;7.93;;
9288;SDS011;4683;50.864;12.086;2023-07-09T01:00:43;9.47;;;8.30;;
9288;SDS011;4683;50.864;12.086;2023-07-09T01:03:20;9.13;;;8.33;;
9288;SDS011;4683;50.864;12.086;2023-07-09T01:05:55;8.43;;;7.63;;
9288;SDS011;4683;50.864;12.086;2023-07-09T01:08:26;9.23;;;8.43;;
9288;SDS011;4683;50.864;12.086;2023-07-09T01:11:00;10.40;;;8.40;;
9288;SDS011;4683;50.864;12.086;2023-07-09T01:13:30;10.00;;;8.23;;
9288;SDS011;4683;50.864;12.086;2023-07-09T01:16:00;9.53;;;8.63;;
9288;SDS011;4683;50.864;12.086;2023-07-09T01:18:30;9.33;;;8.37;;
9288;SDS011;4683;50.864;12.086;2023-07-09T01:21:01;8.97;;;8.17;;
9288;SDS011;4683;50.864;12.086;2023-07-09T01:23:41;9.27;;;8.37;;
9288;SDS011;4683;50.864;12.086;2023-07-09T01:26:10;8.77;;;7.97;;
9288;SDS011;4683;50.864;12.086;2023-07-09T01:28:40;8.97;;;8.20;;
9288;SDS011;4683;50.864;12.086;2023-07-09T01:35:17;9.13;;;8.30;;
9288;SDS011;4683;50.864;12.086;2023-07-09T01:37:50;8.83;;;7.87;;
9288;SDS011;4683;50.864;12.086;2023-07-09T01:40:20;10.53;;;8.10;;
9288;SDS011;4683;50.864;12.086;2023-07-09T01:42:50;9.63;;;8.73;;
9288;SDS011;4683;50.864;12.086;2023-07-09T01:45:21;9.00;;;8.03;;
9288;SDS011;4683;50.864;12.086;2023-07-09T01:47:49;9.07;;;8.17;;
9288;SDS011;4683;50.864;12.086;2023-07-09T01:50:21;8.83;;;7.93;;
9288;SDS011;4683;50.864;12.086;2023-07-09T01:52:57;8.83;;;7.93;;
9288;SDS011;4683;50.864;12.086;2023-07-09T01:55:26;8.90;;;8.10;;
9288;SDS011;4683;50.864;12.086;2023-07-09T01:57:56;9.07;;;8.30;;
9288;SDS011;4683;50.864;12.086;2023-07-09T02:00:24;8.70;;;8.00;;
9288;SDS011;4683;50.864;12.086;2023-07-09T02:03:00;9.70;;;8.80;;
9288;SDS011;4683;50.864;12.086;2023-07-09T02:05:30;10.10;;;9.20;;
9288;SDS011;4683;50.864;12.086;2023-07-09T02:08:00;9.63;;;8.73;;
9288;SDS011;4683;50.864;12.086;2023-07-09T02:10:28;10.07;;;8.90;;
9288;SDS011;4683;50.864;12.086;2023-07-09T02:12:59;8.97;;;8.17;;
9288;SDS011;4683;50.864;12.086;2023-07-09T02:15:27;9.20;;;8.30;;
9288;SDS011;4683;50.864;12.086;2023-07-09T02:17:57;9.27;;;8.30;;
9288;SDS011;4683;50.864;12.086;2023-07-09T02:20:27;9.23;;;8.33;;
9288;SDS011;4683;50.864;12.086;2023-07-09T02:22:55;8.20;;;7.40;;
9288;SDS011;4683;50.864;12.086;2023-07-09T02:25:25;8.50;;;7.70;;
9288;SDS011;4683;50.864;12.086;2023-07-09T02:27:53;8.77;;;7.97;;
9288;SDS011;4683;50.864;12.086;2023-07-09T02:30:22;10.03;;;8.97;;
9288;SDS011;4683;50.864;12.086;2023-07-09T02:32:50;8.97;;;8.07;;
9288;SDS011;4683;50.864;12.086;2023-07-09T02:35:19;8.27;;;7.57;;
9288;SDS011;4683;50.864;12.086;2023-07-09T02:37:51;8.10;;;7.37;;
9288;SDS011;4683;50.864;12.086;2023-07-09T02:40:19;8.17;;;7.37;;
9288;SDS011;4683;50.864;12.086;2023-07-09T02:42:49;9.00;;;8.10;;
9288;SDS011;4683;50.864;12.086;2023-07-09T02:45:19;8.23;;;7.53;;
9288;SDS011;4683;50.864;12.086;2023-07-09T02:47:51;9.70;;;8.80;;
9288;SDS011;4683;50.864;12.086;2023-07-09T02:50:20;9.17;;;8.00;;
9288;SDS011;4683;50.864;12.086;2023-07-09T02:52:48;8.60;;;7.70;;
9288;SDS011;4683;50.864;12.086;2023-07-09T02:55:17;8.23;;;7.53;;
9288;SDS011;4683;50.864;12.086;2023-07-09T02:57:46;10.57;;;7.83;;
9288;SDS011;4683;50.864;12.086;2023-07-09T03:00:16;8.10;;;7.37;;
9288;SDS011;4683;50.864;12.086;2023-07-09T03:02:45;8.87;;;8.03;;
9288;SDS011;4683;50.864;12.086;2023-07-09T03:05:15;8.53;;;7.73;;
9288;SDS011;4683;50.864;12.086;2023-07-09T03:07:43;8.40;;;7.60;;
9288;SDS011;4683;50.864;12.086;2023-07-09T03:10:13;8.00;;;7.30;;
9288;SDS011;4683;50.864;12.086;2023-07-09T03:12:44;8.20;;;7.50;;
9288;SDS011;4683;50.864;12.086;2023-07-09T03:15:15;8.43;;;7.63;;
9288;SDS011;4683;50.864;12.086;2023-07-09T03:17:43;8.63;;;7.83;;
9288;SDS011;4683;50.864;12.086;2023-07-09T03:20:12;8.33;;;7.43;;
9288;SDS011;4683;50.864;12.086;2023-07-09T03:22:40;8.53;;;7.73;;
9288;SDS011;4683;50.864;12.086;2023-07-09T03:25:09;8.43;;;7.70;;
9288;SDS011;4683;50.864;12.086;2023-07-09T03:27:37;7.87;;;7.17;;
9288;SDS011;4683;50.864;12.086;2023-07-09T03:30:06;7.83;;;7.03;;
9288;SDS011;4683;50.864;12.086;2023-07-09T03:32:37;7.90;;;6.90;;
9288;SDS011;4683;50.864;12.086;2023-07-09T03:35:05;8.00;;;7.30;;
9288;SDS011;4683;50.864;12.086;2023-07-09T03:37:35;7.70;;;7.00;;
9288;SDS011;4683;50.864;12.086;2023-07-09T03:40:04;8.10;;;7.30;;
9288;SDS011;4683;50.864;12.086;2023-07-09T03:46:42;7.87;;;6.93;;
9288;SDS011;4683;50.864;12.086;2023-07-09T03:49:12;8.10;;;7.40;;
9288;SDS011;4683;50.864;12.086;2023-07-09T03:51:40;8.50;;;7.70;;
9288;SDS011;4683;50.864;12.086;2023-07-09T03:54:09;7.70;;;7.00;;
9288;SDS011;4683;50.864;12.086;2023-07-09T03:56:37;7.47;;;6.60;;
9288;SDS011;4683;50.864;12.086;2023-07-09T03:59:06;7.43;;;6.83;;
9288;SDS011;4683;50.864;12.086;2023-07-09T04:01:34;8.17;;;7.47;;
9288;SDS011;4683;50.864;12.086;2023-07-09T04:04:03;8.33;;;7.43;;
9288;SDS011;4683;50.864;12.086;2023-07-09T04:06:33;8.17;;;7.27;;
9288;SDS011;4683;50.864;12.086;2023-07-09T04:09:02;8.47;;;7.77;;
9288;SDS011;4683;50.864;12.086;2023-07-09T04:11:31;7.97;;;7.23;;
9288;SDS011;4683;50.864;12.086;2023-07-09T04:13:59;7.77;;;6.97;;
9288;SDS011;4683;50.864;12.086;2023-07-09T04:16:28;8.30;;;7.47;;
9288;SDS011;4683;50.864;12.086;2023-07-09T04:18:56;7.90;;;7.20;;
9288;SDS011;4683;50.864;12.086;2023-07-09T04:21:25;7.87;;;7.17;;
9288;SDS011;4683;50.864;12.086;2023-07-09T04:23:54;8.83;;;8.03;;
9288;SDS011;4683;50.864;12.086;2023-07-09T04:26:23;7.87;;;7.17;;
9288;SDS011;4683;50.864;12.086;2023-07-09T04:28:53;7.80;;;7.00;;
9288;SDS011;4683;50.864;12.086;2023-07-09T04:31:23;8.10;;;7.30;;
9288;SDS011;4683;50.864;12.086;2023-07-09T04:33:52;7.63;;;6.93;;
9288;SDS011;4683;50.864;12.086;2023-07-09T04:36:20;7.23;;;6.53;;
9288;SDS011;4683;50.864;12.086;2023-07-09T04:38:50;8.67;;;6.70;;
9288;SDS011;4683;50.864;12.086;2023-07-09T04:41:20;9.97;;;6.00;;
9288;SDS011;4683;50.864;12.086;2023-07-09T04:43:48;7.57;;;6.87;;
9288;SDS011;4683;50.864;12.086;2023-07-09T04:46:16;9.70;;;7.90;;
9288;SDS011;4683;50.864;12.086;2023-07-09T04:48:45;7.30;;;6.70;;
9288;SDS011;4683;50.864;12.086;2023-07-09T04:51:13;8.40;;;7.60;;
9288;SDS011;4683;50.864;12.086;2023-07-09T04:53:43;8.57;;;7.70;;
9288;SDS011;4683;50.864;12.086;2023-07-09T04:56:11;7.30;;;6.70;;
9288;SDS011;4683;50.864;12.086;2023-07-09T04:58:40;7.63;;;7.03;;
9288;SDS011;4683;50.864;12.086;2023-07-09T05:01:09;8.23;;;7.53;;
9288;SDS011;4683;50.864;12.086;2023-07-09T05:03:38;8.37;;;7.53;;
9288;SDS011;4683;50.864;12.086;2023-07-09T05:06:07;7.77;;;6.37;;
9288;SDS011;4683;50.864;12.086;2023-07-09T05:08:35;7.43;;;6.73;;
9288;SDS011;4683;50.864;12.086;2023-07-09T05:11:03;8.00;;;7.13;;
9288;SDS011;4683;50.864;12.086;2023-07-09T05:13:33;7.47;;;6.70;;
9288;SDS011;4683;50.864;12.086;2023-07-09T05:16:03;7.43;;;6.83;;
9288;SDS011;4683;50.864;12.086;2023-07-09T05:18:31;7.60;;;6.97;;
9288;SDS011;4683;50.864;12.086;2023-07-09T05:21:00;7.57;;;6.83;;
9288;SDS011;4683;50.864;12.086;2023-07-09T05:23:28;7.87;;;7.13;;
9288;SDS011;4683;50.864;12.086;2023-07-09T05:25:56;8.03;;;7.33;;
9288;SDS011;4683;50.864;12.086;2023-07-09T05:28:25;7.27;;;6.67;;
9288;SDS011;4683;50.864;12.086;2023-07-09T05:30:56;8.33;;;6.87;;
9288;SDS011;4683;50.864;12.086;2023-07-09T05:33:28;8.13;;;7.43;;
9288;SDS011;4683;50.864;12.086;2023-07-09T05:35:56;7.10;;;6.40;;
9288;SDS011;4683;50.864;12.086;2023-07-09T05:38:25;7.37;;;6.77;;
9288;SDS011;4683;50.864;12.086;2023-07-09T05:40:59;7.67;;;6.97;;
9288;SDS011;4683;50.864;12.086;2023-07-09T05:44:47;7.63;;;6.93;;
9288;SDS011;4683;50.864;12.086;2023-07-09T05:47:17;6.97;;;6.27;;
9288;SDS011;4683;50.864;12.086;2023-07-09T05:49:46;7.07;;;6.10;;
9288;SDS011;4683;50.864;12.086;2023-07-09T05:52:16;7.30;;;6.57;;
9288;SDS011;4683;50.864;12.086;2023-07-09T05:54:44;7.60;;;7.00;;
9288;SDS011;4683;50.864;12.086;2023-07-09T05:57:17;7.33;;;6.63;;
9288;SDS011;4683;50.864;12.086;2023-07-09T05:59:48;7.03;;;6.43;;
9288;SDS011;4683;50.864;12.086;2023-07-09T06:02:17;6.83;;;6.23;;
9288;SDS011;4683;50.864;12.086;2023-07-09T06:04:48;7.27;;;6.63;;
9288;SDS011;4683;50.864;12.086;2023-07-09T06:07:18;7.00;;;6.40;;
9288;SDS011;4683;50.864;12.086;2023-07-09T06:09:47;7.17;;;6.57;;
9288;SDS011;4683;50.864;12.086;2023-07-09T06:12:16;6.80;;;6.27;;
9288;SDS011;4683;50.864;12.086;2023-07-09T06:14:47;6.70;;;6.20;;
9288;SDS011;4683;50.864;12.086;2023-07-09T06:17:19;7.27;;;6.57;;
9288;SDS011;4683;50.864;12.086;2023-07-09T06:19:52;7.10;;;6.40;;
9288;SDS011;4683;50.864;12.086;2023-07-09T06:22:20;6.40;;;5.77;;
9288;SDS011;4683;50.864;12.086;2023-07-09T06:24:50;7.90;;;6.40;;
9288;SDS011;4683;50.864;12.086;2023-07-09T06:27:22;6.60;;;5.97;;
9288;SDS011;4683;50.864;12.086;2023-07-09T06:29:51;8.50;;;6.30;;
9288;SDS011;4683;50.864;12.086;2023-07-09T06:32:20;7.07;;;6.43;;
9288;SDS011;4683;50.864;12.086;2023-07-09T06:34:49;7.07;;;6.37;;
9288;SDS011;4683;50.864;12.086;2023-07-09T06:37:18;6.50;;;5.90;;
9288;SDS011;4683;50.864;12.086;2023-07-09T06:39:46;7.30;;;6.60;;
9288;SDS011;4683;50.864;12.086;2023-07-09T06:42:15;7.20;;;6.60;;
9288;SDS011;4683;50.864;12.086;2023-07-09T06:44:43;6.80;;;6.20;;
9288;SDS011;4683;50.864;12.086;2023-07-09T06:47:12;7.17;;;6.57;;
9288;SDS011;4683;50.864;12.086;2023-07-09T06:49:40;6.73;;;6.13;;
9288;SDS011;4683;50.864;12.086;2023-07-09T06:52:10;6.23;;;5.63;;
9288;SDS011;4683;50.864;12.086;2023-07-09T06:54:39;6.47;;;5.90;;
9288;SDS011;4683;50.864;12.086;2023-07-09T06:57:07;6.10;;;5.60;;
9288;SDS011;4683;50.864;12.086;2023-07-09T06:59:38;6.90;;;6.30;;
9288;SDS011;4683;50.864;12.086;2023-07-09T07:02:07;6.70;;;6.10;;
9288;SDS011;4683;50.864;12.086;2023-07-09T07:04:38;7.37;;;6.70;;
9288;SDS011;4683;50.864;12.086;2023-07-09T07:07:11;8.87;;;6.60;;
9288;SDS011;4683;50.864;12.086;2023-07-09T07:09:39;7.03;;;6.37;;
9288;SDS011;4683;50.864;12.086;2023-07-09T07:12:08;7.03;;;6.43;;
9288;SDS011;4683;50.864;12.086;2023-07-09T07:14:46;6.33;;;5.80;;
9288;SDS011;4683;50.864;12.086;2023-07-09T07:17:15;6.87;;;6.20;;
9288;SDS011;4683;50.864;12.086;2023-07-09T07:19:45;6.67;;;6.07;;
9288;SDS011;4683;50.864;12.086;2023-07-09T07:22:15;7.50;;;6.77;;
9288;SDS011;4683;50.864;12.086;2023-07-09T07:24:45;6.43;;;5.93;;
9288;SDS011;4683;50.864;12.086;2023-07-09T07:27:13;7.17;;;6.53;;
9288;SDS011;4683;50.864;12.086;2023-07-09T07:29:41;7.27;;;6.57;;
9288;SDS011;4683;50.864;12.086;2023-07-09T07:32:11;6.63;;;6.10;;
9288;SDS011;4683;50.864;12.086;2023-07-09T07:34:40;8.07;;;7.37;;
9288;SDS011;4683;50.864;12.086;2023-07-09T07:37:08;6.90;;;6.30;;
9288;SDS011;4683;50.864;12.086;2023-07-09T07:39:39;6.90;;;6.30;;
9288;SDS011;4683;50.864;12.086;2023-07-09T07:42:07;7.07;;;6.30;;
9288;SDS011;4683;50.864;12.086;2023-07-09T07:44:36;7.17;;;6.50;;
9288;SDS011;4683;50.864;12.086;2023-07-09T07:47:06;6.37;;;5.77;;
9288;SDS011;4683;50.864;12.086;2023-07-09T07:49:34;6.40;;;5.87;;
9288;SDS011;4683;50.864;12.086;2023-07-09T07:55:43;7.10;;;6.43;;
9288;SDS011;4683;50.864;12.086;2023-07-09T07:58:12;6.57;;;5.97;;
9288;SDS011;4683;50.864;12.086;2023-07-09T08:00:41;6.80;;;6.20;;
9288;SDS011;4683;50.864;12.086;2023-07-09T08:03:10;6.23;;;5.73;;
9288;SDS011;4683;50.864;12.086;2023-07-09T08:05:38;7.03;;;6.33;;
9288;SDS011;4683;50.864;12.086;2023-07-09T08:08:09;6.03;;;5.60;;
9288;SDS011;4683;50.864;12.086;2023-07-09T08:10:37;6.93;;;6.43;;
9288;SDS011;4683;50.864;12.086;2023-07-09T08:13:07;6.93;;;6.23;;
9288;SDS011;4683;50.864;12.086;2023-07-09T08:15:37;6.40;;;5.90;;
9288;SDS011;4683;50.864;12.086;2023-07-09T08:18:05;6.97;;;6.10;;
9288;SDS011;4683;50.864;12.086;2023-07-09T08:20:36;7.70;;;6.87;;
9288;SDS011;4683;50.864;12.086;2023-07-09T08:23:05;6.57;;;6.03;;
9288;SDS011;4683;50.864;12.086;2023-07-09T08:25:34;7.00;;;6.30;;
9288;SDS011;4683;50.864;12.086;2023-07-09T08:28:04;7.47;;;6.50;;
9288;SDS011;4683;50.864;12.086;2023-07-09T08:30:35;6.33;;;5.73;;
9288;SDS011;4683;50.864;12.086;2023-07-09T08:33:03;6.97;;;6.37;;
9288;SDS011;4683;50.864;12.086;2023-07-09T08:35:32;6.63;;;5.97;;
9288;SDS011;4683;50.864;12.086;2023-07-09T08:38:01;6.17;;;5.67;;
9288;SDS011;4683;50.864;12.086;2023-07-09T08:40:30;6.47;;;5.97;;
9288;SDS011;4683;50.864;12.086;2023-07-09T08:42:59;6.40;;;5.90;;
9288;SDS011;4683;50.864;12.086;2023-07-09T08:45:46;8.37;;;6.17;;
9288;SDS011;4683;50.864;12.086;2023-07-09T08:48:25;6.57;;;6.00;;
9288;SDS011;4683;50.864;12.086;2023-07-09T08:51:07;6.27;;;5.73;;
9288;SDS011;4683;50.864;12.086;2023-07-09T08:53:44;7.50;;;6.40;;
9288;SDS011;4683;50.864;12.086;2023-07-09T08:56:16;6.17;;;5.70;;
9288;SDS011;4683;50.864;12.086;2023-07-09T08:58:48;7.23;;;6.57;;
9288;SDS011;4683;50.864;12.086;2023-07-09T09:01:18;6.90;;;6.40;;
9288;SDS011;4683;50.864;12.086;2023-07-09T09:03:52;7.00;;;6.40;;
9288;SDS011;4683;50.864;12.086;2023-07-09T09:06:28;6.87;;;6.27;;
9288;SDS011;4683;50.864;12.086;2023-07-09T09:09:03;6.50;;;5.90;;
9288;SDS011;4683;50.864;12.086;2023-07-09T09:11:46;6.50;;;6.00;;
9288;SDS011;4683;50.864;12.086;2023-07-09T09:14:26;7.17;;;6.50;;
9288;SDS011;4683;50.864;12.086;2023-07-09T09:16:58;6.43;;;5.83;;
9288;SDS011;4683;50.864;12.086;2023-07-09T09:19:43;6.03;;;5.43;;
9288;SDS011;4683;50.864;12.086;2023-07-09T09:22:17;5.97;;;5.37;;
9288;SDS011;4683;50.864;12.086;2023-07-09T09:24:55;6.13;;;5.53;;
9288;SDS011;4683;50.864;12.086;2023-07-09T09:27:30;6.33;;;5.80;;
9288;SDS011;4683;50.864;12.086;2023-07-09T09:30:00;6.00;;;5.50;;
9288;SDS011;4683;50.864;12.086;2023-07-09T09:32:29;6.53;;;5.90;;
9288;SDS011;4683;50.864;12.086;2023-07-09T09:35:15;7.40;;;5.60;;
9288;SDS011;4683;50.864;12.086;2023-07-09T09:37:49;5.93;;;5.43;;
9288;SDS011;4683;50.864;12.086;2023-07-09T09:40:20;6.43;;;4.83;;
9288;SDS011;4683;50.864;12.086;2023-07-09T09:42:51;5.70;;;5.20;;
9288;SDS011;4683;50.864;12.086;2023-07-09T09:45:27;5.90;;;5.40;;
9288;SDS011;4683;50.864;12.086;2023-07-09T09:48:01;6.03;;;5.47;;
9288;SDS011;4683;50.864;12.086;2023-07-09T09:50:40;5.33;;;4.93;;
9288;SDS011;4683;50.864;12.086;2023-07-09T09:53:12;6.00;;;5.50;;
9288;SDS011;4683;50.864;12.086;2023-07-09T09:55:50;6.63;;;5.70;;
9288;SDS011;4683;50.864;12.086;2023-07-09T09:58:19;6.33;;;5.83;;
9288;SDS011;4683;50.864;12.086;2023-07-09T10:00:56;6.13;;;5.63;;
9288;SDS011;4683;50.864;12.086;2023-07-09T10:03:34;5.77;;;5.37;;
9288;SDS011;4683;50.864;12.086;2023-07-09T10:06:06;6.20;;;5.70;;
9288;SDS011;4683;50.864;12.086;2023-07-09T10:08:44;6.27;;;5.77;;
9288;SDS011;4683;50.864;12.086;2023-07-09T10:11:26;5.77;;;5.27;;
9288;SDS011;4683;50.864;12.086;2023-07-09T10:14:08;6.83;;;5.23;;
9288;SDS011;4683;50.864;12.086;2023-07-09T10:17:00;5.10;;;4.67;;
9288;SDS011;4683;50.864;12.086;2023-07-09T10:19:53;5.93;;;5.43;;
9288;SDS011;4683;50.864;12.086;2023-07-09T10:22:35;5.37;;;4.97;;
9288;SDS011;4683;50.864;12.086;2023-07-09T10:25:20;5.47;;;5.07;;
9288;SDS011;4683;50.864;12.086;2023-07-09T10:28:16;6.03;;;5.20;;
9288;SDS011;4683;50.864;12.086;2023-07-09T10:31:04;5.83;;;5.23;;
9288;SDS011;4683;50.864;12.086;2023-07-09T10:33:49;6.37;;;5.77;;
9288;SDS011;4683;50.864;12.086;2023-07-09T10:36:30;6.60;;;5.50;;
9288;SDS011;4683;50.864;12.086;2023-07-09T10:39:13;6.10;;;5.50;;
9288;SDS011;4683;50.864;12.086;2023-07-09T10:41:48;5.67;;;5.17;;
9288;SDS011;4683;50.864;12.086;2023-07-09T10:44:28;5.93;;;5.40;;
9288;SDS011;4683;50.864;12.086;2023-07-09T10:47:09;5.50;;;5.07;;
9288;SDS011;4683;50.864;12.086;2023-07-09T10:49:59;5.63;;;5.03;;
9288;SDS011;4683;50.864;12.086;2023-07-09T10:52:32;5.83;;;5.33;;
9288;SDS011;4683;50.864;12.086;2023-07-09T10:55:15;5.57;;;5.17;;
9288;SDS011;4683;50.864;12.086;2023-07-09T10:57:56;6.47;;;5.33;;
9288;SDS011;4683;50.864;12.086;2023-07-09T11:00:33;6.17;;;5.57;;
9288;SDS011;4683;50.864;12.086;2023-07-09T11:03:04;5.57;;;5.07;;
9288;SDS011;4683;50.864;12.086;2023-07-09T11:05:44;5.27;;;4.77;;
9288;SDS011;4683;50.864;12.086;2023-07-09T11:08:14;5.73;;;5.33;;
9288;SDS011;4683;50.864;12.086;2023-07-09T11:10:48;5.90;;;5.40;;
9288;SDS011;4683;50.864;12.086;2023-07-09T11:13:23;5.30;;;4.80;;
9288;SDS011;4683;50.864;12.086;2023-07-09T11:15:58;5.27;;;4.87;;
9288;SDS011;4683;50.864;12.086;2023-07-09T11:18:30;6.30;;;5.70;;
9288;SDS011;4683;50.864;12.086;2023-07-09T11:21:04;5.70;;;5.00;;
9288;SDS011;4683;50.864;12.086;2023-07-09T11:23:44;5.70;;;5.20;;
9288;SDS011;4683;50.864;12.086;2023-07-09T11:26:21;5.57;;;5.07;;
9288;SDS011;4683;50.864;12.086;2023-07-09T11:28:52;5.97;;;5.47;;
9288;SDS011;4683;50.864;12.086;2023-07-09T11:31:24;6.03;;;5.53;;
9288;SDS011;4683;50.864;12.086;2023-07-09T11:34:02;6.07;;;5.47;;
9288;SDS011;4683;50.864;12.086;2023-07-09T11:36:47;7.30;;;6.70;;
9288;SDS011;4683;50.864;12.086;2023-07-09T11:39:22;6.43;;;5.70;;
9288;SDS011;4683;50.864;12.086;2023-07-09T11:41:56;5.87;;;5.37;;
9288;SDS011;4683;50.864;12.086;2023-07-09T11:44:26;6.07;;;5.47;;
9288;SDS011;4683;50.864;12.086;2023-07-09T11:47:00;6.20;;;5.23;;
9288;SDS011;4683;50.864;12.086;2023-07-09T11:49:48;6.70;;;6.00;;
9288;SDS011;4683;50.864;12.086;2023-07-09T11:52:27;6.10;;;5.53;;
9288;SDS011;4683;50.864;12.086;2023-07-09T11:55:03;6.77;;;5.57;;
9288;SDS011;4683;50.864;12.086;2023-07-09T11:57:52;5.60;;;5.10;;
9288;SDS011;4683;50.864;12.086;2023-07-09T12:00:22;6.43;;;5.93;;
9288;SDS011;4683;50.864;12.086;2023-07-09T12:02:54;6.07;;;5.57;;
9288;SDS011;4683;50.864;12.086;2023-07-09T12:05:25;5.50;;;5.00;;
9288;SDS011;4683;50.864;12.086;2023-07-09T12:07:58;7.07;;;5.27;;
9288;SDS011;4683;50.864;12.086;2023-07-09T12:10:28;6.07;;;5.57;;
9288;SDS011;4683;50.864;12.086;2023-07-09T12:13:03;6.20;;;5.70;;
9288;SDS011;4683;50.864;12.086;2023-07-09T12:15:33;6.40;;;5.80;;
9288;SDS011;4683;50.864;12.086;2023-07-09T12:18:02;5.90;;;5.30;;
9288;SDS011;4683;50.864;12.086;2023-07-09T12:20:40;6.27;;;5.67;;
9288;SDS011;4683;50.864;12.086;2023-07-09T12:23:20;11.80;;;5.83;;
9288;SDS011;4683;50.864;12.086;2023-07-09T12:25:53;7.13;;;5.60;;
9288;SDS011;4683;50.864;12.086;2023-07-09T12:28:23;5.73;;;5.23;;
9288;SDS011;4683;50.864;12.086;2023-07-09T12:30:53;6.47;;;5.90;;
9288;SDS011;4683;50.864;12.086;2023-07-09T12:33:24;6.40;;;5.80;;
9288;SDS011;4683;50.864;12.086;2023-07-09T12:35:55;6.47;;;5.67;;
9288;SDS011;4683;50.864;12.086;2023-07-09T12:38:29;6.00;;;5.50;;
9288;SDS011;4683;50.864;12.086;2023-07-09T12:41:05;6.03;;;5.53;;
9288;SDS011;4683;50.864;12.086;2023-07-09T12:43:44;6.37;;;5.77;;
9288;SDS011;4683;50.864;12.086;2023-07-09T12:46:13;6.13;;;5.63;;
9288;SDS011;4683;50.864;12.086;2023-07-09T12:48:44;5.87;;;5.20;;
9288;SDS011;4683;50.864;12.086;2023-07-09T12:51:15;6.47;;;5.97;;
9288;SDS011;4683;50.864;12.086;2023-07-09T12:54:01;5.90;;;5.40;;
9288;SDS011;4683;50.864;12.086;2023-07-09T12:56:38;6.67;;;5.50;;
9288;SDS011;4683;50.864;12.086;2023-07-09T12:59:12;6.60;;;5.83;;
9288;SDS011;4683;50.864;12.086;2023-07-09T13:01:49;5.97;;;5.30;;
9288;SDS011;4683;50.864;12.086;2023-07-09T13:04:27;5.97;;;5.37;;
9288;SDS011;4683;50.864;12.086;2023-07-09T13:06:59;5.93;;;5.47;;
9288;SDS011;4683;50.864;12.086;2023-07-09T13:09:28;6.10;;;5.60;;
9288;SDS011;4683;50.864;12.086;2023-07-09T13:11:58;6.00;;;5.50;;
9288;SDS011;4683;50.864;12.086;2023-07-09T13:14:27;6.07;;;5.57;;
9288;SDS011;4683;50.864;12.086;2023-07-09T13:17:02;6.27;;;5.13;;
9288;SDS011;4683;50.864;12.086;2023-07-09T13:19:33;5.93;;;5.33;;
9288;SDS011;4683;50.864;12.086;2023-07-09T13:22:02;6.37;;;5.80;;
9288;SDS011;4683;50.864;12.086;2023-07-09T13:24:42;6.00;;;5.50;;
9288;SDS011;4683;50.864;12.086;2023-07-09T13:27:13;5.97;;;5.47;;
9288;SDS011;4683;50.864;12.086;2023-07-09T13:29:42;6.60;;;5.80;;
9288;SDS011;4683;50.864;12.086;2023-07-09T13:32:14;6.23;;;5.40;;
9288;SDS011;4683;50.864;12.086;2023-07-09T13:34:43;7.80;;;6.10;;
9288;SDS011;4683;50.864;12.086;2023-07-09T13:37:13;6.97;;;5.53;;
9288;SDS011;4683;50.864;12.086;2023-07-09T13:39:45;6.40;;;5.80;;
9288;SDS011;4683;50.864;12.086;2023-07-09T13:42:15;6.10;;;5.60;;
9288;SDS011;4683;50.864;12.086;2023-07-09T13:44:45;8.77;;;5.87;;
9288;SDS011;4683;50.864;12.086;2023-07-09T13:47:17;5.63;;;5.13;;
9288;SDS011;4683;50.864;12.086;2023-07-09T13:49:46;6.40;;;5.57;;
9288;SDS011;4683;50.864;12.086;2023-07-09T13:52:15;5.70;;;5.23;;
9288;SDS011;4683;50.864;12.086;2023-07-09T13:54:47;6.53;;;5.90;;
9288;SDS011;4683;50.864;12.086;2023-07-09T13:57:16;5.90;;;5.40;;
9288;SDS011;4683;50.864;12.086;2023-07-09T13:59:48;6.20;;;5.70;;
9288;SDS011;4683;50.864;12.086;2023-07-09T14:02:19;5.50;;;5.00;;
9288;SDS011;4683;50.864;12.086;2023-07-09T14:04:56;6.30;;;5.70;;
9288;SDS011;4683;50.864;12.086;2023-07-09T14:07:26;6.73;;;5.90;;
9288;SDS011;4683;50.864;12.086;2023-07-09T14:09:59;6.80;;;6.20;;
9288;SDS011;4683;50.864;12.086;2023-07-09T14:12:29;5.77;;;5.27;;
9288;SDS011;4683;50.864;12.086;2023-07-09T14:15:01;7.30;;;6.30;;
9288;SDS011;4683;50.864;12.086;2023-07-09T14:17:37;5.83;;;5.33;;
9288;SDS011;4683;50.864;12.086;2023-07-09T14:20:07;6.03;;;5.43;;
9288;SDS011;4683;50.864;12.086;2023-07-09T14:22:39;6.03;;;5.40;;
9288;SDS011;4683;50.864;12.086;2023-07-09T14:25:16;6.07;;;5.47;;
9288;SDS011;4683;50.864;12.086;2023-07-09T14:27:48;5.70;;;5.30;;
9288;SDS011;4683;50.864;12.086;2023-07-09T14:30:18;6.03;;;5.43;;
9288;SDS011;4683;50.864;12.086;2023-07-09T14:32:49;6.00;;;5.50;;
9288;SDS011;4683;50.864;12.086;2023-07-09T14:35:19;5.77;;;5.23;;
9288;SDS011;4683;50.864;12.086;2023-07-09T14:37:51;6.57;;;5.80;;
9288;SDS011;4683;50.864;12.086;2023-07-09T14:40:22;6.77;;;6.07;;
9288;SDS011;4683;50.864;12.086;2023-07-09T14:42:50;5.93;;;5.43;;
9288;SDS011;4683;50.864;12.086;2023-07-09T14:45:19;6.20;;;5.60;;
9288;SDS011;4683;50.864;12.086;2023-07-09T14:47:52;6.10;;;5.57;;
9288;SDS011;4683;50.864;12.086;2023-07-09T14:50:22;6.03;;;5.53;;
9288;SDS011;4683;50.864;12.086;2023-07-09T14:52:51;6.20;;;5.60;;
9288;SDS011;4683;50.864;12.086;2023-07-09T14:55:22;6.30;;;5.80;;
9288;SDS011;4683;50.864;12.086;2023-07-09T14:57:51;6.37;;;5.77;;
9288;SDS011;4683;50.864;12.086;2023-07-09T15:00:20;6.10;;;5.53;;
9288;SDS011;4683;50.864;12.086;2023-07-09T15:02:51;7.47;;;5.97;;
9288;SDS011;4683;50.864;12.086;2023-07-09T15:05:22;6.70;;;5.77;;
9288;SDS011;4683;50.864;12.086;2023-07-09T15:07:55;6.03;;;5.43;;
9288;SDS011;4683;50.864;12.086;2023-07-09T15:10:25;6.60;;;6.00;;
9288;SDS011;4683;50.864;12.086;2023-07-09T15:12:54;6.50;;;5.93;;
9288;SDS011;4683;50.864;12.086;2023-07-09T15:15:23;5.80;;;5.27;;
9288;SDS011;4683;50.864;12.086;2023-07-09T15:17:53;6.33;;;5.73;;
9288;SDS011;4683;50.864;12.086;2023-07-09T15:20:23;6.40;;;5.90;;
9288;SDS011;4683;50.864;12.086;2023-07-09T15:22:59;6.80;;;5.40;;
9288;SDS011;4683;50.864;12.086;2023-07-09T15:25:31;6.30;;;5.63;;
9288;SDS011;4683;50.864;12.086;2023-07-09T15:27:59;6.53;;;5.93;;
9288;SDS011;4683;50.864;12.086;2023-07-09T15:30:28;5.68;;;5.22;;
9288;SDS011;4683;50.864;12.086;2023-07-09T15:33:00;5.63;;;5.20;;
9288;SDS011;4683;50.864;12.086;2023-07-09T15:35:28;6.90;;;5.97;;
9288;SDS011;4683;50.864;12.086;2023-07-09T15:38:01;6.03;;;5.53;;
9288;SDS011;4683;50.864;12.086;2023-07-09T15:40:47;6.15;;;5.55;;
9288;SDS011;4683;50.864;12.086;2023-07-09T15:43:16;7.22;;;5.55;;
9288;SDS011;4683;50.864;12.086;2023-07-09T15:45:46;5.75;;;5.25;;
9288;SDS011;4683;50.864;12.086;2023-07-09T15:48:20;6.85;;;6.25;;